sensor_id;sensor_type;location;lat;lon;timestamp;P1;durP1;ratioP1;P2;durP2;ratioP2
19814;SDS011;10067;53.092;8.800;2023-05-17T00:01:25;26.13;;;6.10;;
19814;SDS011;10067;53.092;8.800;2023-05-17T00:03:51;33.90;;;8.15;;
19814;SDS011;10067;53.092;8.800;2023-05-17T00:06:20;32.80;;;8.60;;
19814;SDS011;10067;53.092;8.800;2023-05-17T00:08:46;24.13;;;7.40;;
19814;SDS011;10067;53.092;8.800;2023-05-17T00:11:15;28.35;;;7.55;;
19814;SDS011;10067;53.092;8.800;2023-05-17T00:13:41;34.60;;;9.20;;
19814;SDS011;10067;53.092;8.800;2023-05-17T00:16:07;28.63;;;7.88;;
19814;SDS011;10067;53.092;8.800;2023-05-17T00:18:35;22.63;;;7.25;;
19814;SDS011;10067;53.092;8.800;2023-05-17T00:21:01;20.80;;;7.40;;
19814;SDS011;10067;53.092;8.800;2023-05-17T00:23:28;27.30;;;7.15;;
19814;SDS011;10067;53.092;8.800;2023-05-17T00:25:54;19.75;;;5.80;;
19814;SDS011;10067;53.092;8.800;2023-05-17T00:28:20;25.98;;;6.97;;
19814;SDS011;10067;53.092;8.800;2023-05-17T00:30:47;22.95;;;5.15;;
19814;SDS011;10067;53.092;8.800;2023-05-17T00:33:13;23.33;;;6.35;;
19814;SDS011;10067;53.092;8.800;2023-05-17T00:35:41;18.35;;;6.75;;
19814;SDS011;10067;53.092;8.800;2023-05-17T00:38:07;25.35;;;6.20;;
19814;SDS011;10067;53.092;8.800;2023-05-17T00:40:34;27.33;;;5.50;;
19814;SDS011;10067;53.092;8.800;2023-05-17T00:43:00;21.00;;;5.45;;
19814;SDS011;10067;53.092;8.800;2023-05-17T00:45:26;27.50;;;5.60;;
19814;SDS011;10067;53.092;8.800;2023-05-17T00:47:53;25.40;;;6.53;;
19814;SDS011;10067;53.092;8.800;2023-05-17T00:50:19;25.27;;;6.80;;
19814;SDS011;10067;53.092;8.800;2023-05-17T00:52:47;28.20;;;5.20;;
19814;SDS011;10067;53.092;8.800;2023-05-17T00:55:13;20.92;;;4.50;;
19814;SDS011;10067;53.092;8.800;2023-05-17T00:57:40;21.08;;;4.22;;
19814;SDS011;10067;53.092;8.800;2023-05-17T01:00:07;23.80;;;5.03;;
19814;SDS011;10067;53.092;8.800;2023-05-17T01:02:33;23.83;;;5.05;;
19814;SDS011;10067;53.092;8.800;2023-05-17T01:05:00;18.40;;;4.82;;
19814;SDS011;10067;53.092;8.800;2023-05-17T01:07:26;26.70;;;5.70;;
19814;SDS011;10067;53.092;8.800;2023-05-17T01:09:54;26.58;;;6.10;;
19814;SDS011;10067;53.092;8.800;2023-05-17T01:12:23;22.10;;;5.40;;
19814;SDS011;10067;53.092;8.800;2023-05-17T01:14:55;19.92;;;5.22;;
19814;SDS011;10067;53.092;8.800;2023-05-17T01:17:23;23.25;;;5.68;;
19814;SDS011;10067;53.092;8.800;2023-05-17T01:19:55;28.83;;;7.22;;
19814;SDS011;10067;53.092;8.800;2023-05-17T01:22:39;28.88;;;6.82;;
19814;SDS011;10067;53.092;8.800;2023-05-17T01:25:24;27.17;;;7.63;;
19814;SDS011;10067;53.092;8.800;2023-05-17T01:27:53;27.23;;;7.10;;
19814;SDS011;10067;53.092;8.800;2023-05-17T01:30:20;25.73;;;7.05;;
19814;SDS011;10067;53.092;8.800;2023-05-17T01:32:47;30.75;;;6.57;;
19814;SDS011;10067;53.092;8.800;2023-05-17T01:35:14;32.28;;;6.18;;
19814;SDS011;10067;53.092;8.800;2023-05-17T01:37:41;26.45;;;6.50;;
19814;SDS011;10067;53.092;8.800;2023-05-17T01:40:07;29.02;;;6.43;;
19814;SDS011;10067;53.092;8.800;2023-05-17T01:42:35;27.00;;;6.20;;
19814;SDS011;10067;53.092;8.800;2023-05-17T01:45:06;30.23;;;6.70;;
19814;SDS011;10067;53.092;8.800;2023-05-17T01:47:35;34.65;;;7.60;;
19814;SDS011;10067;53.092;8.800;2023-05-17T01:50:05;26.00;;;6.82;;
19814;SDS011;10067;53.092;8.800;2023-05-17T01:52:34;26.10;;;6.60;;
19814;SDS011;10067;53.092;8.800;2023-05-17T01:55:04;29.98;;;7.15;;
19814;SDS011;10067;53.092;8.800;2023-05-17T01:57:32;28.65;;;6.53;;
19814;SDS011;10067;53.092;8.800;2023-05-17T02:00:01;25.70;;;6.03;;
19814;SDS011;10067;53.092;8.800;2023-05-17T02:02:29;34.00;;;7.63;;
19814;SDS011;10067;53.092;8.800;2023-05-17T02:04:56;24.95;;;6.18;;
19814;SDS011;10067;53.092;8.800;2023-05-17T02:07:22;29.58;;;6.82;;
19814;SDS011;10067;53.092;8.800;2023-05-17T02:09:49;30.65;;;7.50;;
19814;SDS011;10067;53.092;8.800;2023-05-17T02:12:15;26.65;;;7.10;;
19814;SDS011;10067;53.092;8.800;2023-05-17T02:14:41;39.80;;;7.50;;
19814;SDS011;10067;53.092;8.800;2023-05-17T02:17:08;29.92;;;6.85;;
19814;SDS011;10067;53.092;8.800;2023-05-17T02:19:35;30.17;;;6.65;;
19814;SDS011;10067;53.092;8.800;2023-05-17T02:22:02;32.35;;;6.93;;
19814;SDS011;10067;53.092;8.800;2023-05-17T02:24:28;31.98;;;7.07;;
19814;SDS011;10067;53.092;8.800;2023-05-17T02:26:54;27.23;;;6.78;;
19814;SDS011;10067;53.092;8.800;2023-05-17T02:29:21;31.83;;;6.38;;
19814;SDS011;10067;53.092;8.800;2023-05-17T02:31:48;27.70;;;6.28;;
19814;SDS011;10067;53.092;8.800;2023-05-17T02:34:14;27.77;;;7.07;;
19814;SDS011;10067;53.092;8.800;2023-05-17T02:36:42;28.77;;;6.10;;
19814;SDS011;10067;53.092;8.800;2023-05-17T02:39:09;27.60;;;5.82;;
19814;SDS011;10067;53.092;8.800;2023-05-17T02:41:35;28.08;;;6.07;;
19814;SDS011;10067;53.092;8.800;2023-05-17T02:44:01;23.33;;;5.18;;
19814;SDS011;10067;53.092;8.800;2023-05-17T02:46:28;28.30;;;7.22;;
19814;SDS011;10067;53.092;8.800;2023-05-17T02:48:54;23.08;;;6.00;;
19814;SDS011;10067;53.092;8.800;2023-05-17T02:51:21;26.15;;;6.63;;
19814;SDS011;10067;53.092;8.800;2023-05-17T02:53:48;33.42;;;7.50;;
19814;SDS011;10067;53.092;8.800;2023-05-17T02:56:15;30.58;;;6.97;;
19814;SDS011;10067;53.092;8.800;2023-05-17T02:58:41;29.38;;;7.70;;
19814;SDS011;10067;53.092;8.800;2023-05-17T03:01:08;33.83;;;7.20;;
19814;SDS011;10067;53.092;8.800;2023-05-17T03:03:34;28.75;;;6.55;;
19814;SDS011;10067;53.092;8.800;2023-05-17T03:06:00;25.48;;;6.13;;
19814;SDS011;10067;53.092;8.800;2023-05-17T03:08:28;24.67;;;4.90;;
19814;SDS011;10067;53.092;8.800;2023-05-17T03:10:56;15.52;;;4.32;;
19814;SDS011;10067;53.092;8.800;2023-05-17T03:13:22;21.65;;;4.70;;
19814;SDS011;10067;53.092;8.800;2023-05-17T03:15:49;28.05;;;4.95;;
19814;SDS011;10067;53.092;8.800;2023-05-17T03:18:15;22.58;;;4.18;;
19814;SDS011;10067;53.092;8.800;2023-05-17T03:20:42;17.08;;;4.65;;
19814;SDS011;10067;53.092;8.800;2023-05-17T03:23:08;22.42;;;4.03;;
19814;SDS011;10067;53.092;8.800;2023-05-17T03:25:35;16.95;;;3.80;;
19814;SDS011;10067;53.092;8.800;2023-05-17T03:28:02;20.90;;;4.03;;
19814;SDS011;10067;53.092;8.800;2023-05-17T03:30:29;24.13;;;3.42;;
19814;SDS011;10067;53.092;8.800;2023-05-17T03:32:55;20.00;;;3.83;;
19814;SDS011;10067;53.092;8.800;2023-05-17T03:35:21;15.40;;;3.25;;
19814;SDS011;10067;53.092;8.800;2023-05-17T03:37:48;21.40;;;4.50;;
19814;SDS011;10067;53.092;8.800;2023-05-17T03:40:14;12.18;;;3.42;;
19814;SDS011;10067;53.092;8.800;2023-05-17T03:42:41;19.70;;;3.58;;
19814;SDS011;10067;53.092;8.800;2023-05-17T03:45:09;15.27;;;2.92;;
19814;SDS011;10067;53.092;8.800;2023-05-17T03:47:36;21.20;;;3.05;;
19814;SDS011;10067;53.092;8.800;2023-05-17T03:50:03;18.98;;;3.47;;
19814;SDS011;10067;53.092;8.800;2023-05-17T03:52:30;16.23;;;3.85;;
19814;SDS011;10067;53.092;8.800;2023-05-17T03:54:56;12.75;;;3.10;;
19814;SDS011;10067;53.092;8.800;2023-05-17T03:57:22;14.45;;;2.97;;
19814;SDS011;10067;53.092;8.800;2023-05-17T03:59:49;21.33;;;3.42;;
19814;SDS011;10067;53.092;8.800;2023-05-17T04:02:16;18.13;;;3.88;;
19814;SDS011;10067;53.092;8.800;2023-05-17T04:04:47;16.77;;;3.10;;
19814;SDS011;10067;53.092;8.800;2023-05-17T04:07:13;12.90;;;2.95;;
19814;SDS011;10067;53.092;8.800;2023-05-17T04:09:40;19.05;;;3.97;;
19814;SDS011;10067;53.092;8.800;2023-05-17T04:12:07;14.45;;;2.55;;
19814;SDS011;10067;53.092;8.800;2023-05-17T04:14:34;15.20;;;3.78;;
19814;SDS011;10067;53.092;8.800;2023-05-17T04:17:01;14.02;;;3.22;;
19814;SDS011;10067;53.092;8.800;2023-05-17T04:19:29;16.58;;;4.10;;
19814;SDS011;10067;53.092;8.800;2023-05-17T04:21:55;13.27;;;3.03;;
19814;SDS011;10067;53.092;8.800;2023-05-17T04:24:22;12.43;;;4.13;;
19814;SDS011;10067;53.092;8.800;2023-05-17T04:26:48;15.13;;;3.38;;
19814;SDS011;10067;53.092;8.800;2023-05-17T04:29:14;14.23;;;4.00;;
19814;SDS011;10067;53.092;8.800;2023-05-17T04:31:41;17.38;;;4.07;;
19814;SDS011;10067;53.092;8.800;2023-05-17T04:34:07;18.92;;;4.88;;
19814;SDS011;10067;53.092;8.800;2023-05-17T04:36:35;17.50;;;4.22;;
19814;SDS011;10067;53.092;8.800;2023-05-17T04:39:01;19.33;;;4.10;;
19814;SDS011;10067;53.092;8.800;2023-05-17T04:41:28;19.50;;;4.47;;
19814;SDS011;10067;53.092;8.800;2023-05-17T04:43:55;26.17;;;8.23;;
19814;SDS011;10067;53.092;8.800;2023-05-17T04:46:21;25.63;;;5.90;;
19814;SDS011;10067;53.092;8.800;2023-05-17T04:48:48;21.40;;;5.20;;
19814;SDS011;10067;53.092;8.800;2023-05-17T04:51:14;24.27;;;5.97;;
19814;SDS011;10067;53.092;8.800;2023-05-17T04:53:42;19.85;;;4.18;;
19814;SDS011;10067;53.092;8.800;2023-05-17T04:56:08;21.50;;;5.40;;
19814;SDS011;10067;53.092;8.800;2023-05-17T04:58:34;19.98;;;5.07;;
19814;SDS011;10067;53.092;8.800;2023-05-17T05:01:01;19.95;;;4.63;;
19814;SDS011;10067;53.092;8.800;2023-05-17T05:03:27;21.55;;;3.88;;
19814;SDS011;10067;53.092;8.800;2023-05-17T05:05:53;18.40;;;4.78;;
19814;SDS011;10067;53.092;8.800;2023-05-17T05:08:20;20.13;;;4.63;;
19814;SDS011;10067;53.092;8.800;2023-05-17T05:10:47;22.58;;;5.65;;
19814;SDS011;10067;53.092;8.800;2023-05-17T05:13:15;22.48;;;6.30;;
19814;SDS011;10067;53.092;8.800;2023-05-17T05:15:41;20.58;;;5.38;;
19814;SDS011;10067;53.092;8.800;2023-05-17T05:18:08;21.50;;;5.72;;
19814;SDS011;10067;53.092;8.800;2023-05-17T05:20:34;16.88;;;4.10;;
19814;SDS011;10067;53.092;8.800;2023-05-17T05:23:00;20.85;;;5.28;;
19814;SDS011;10067;53.092;8.800;2023-05-17T05:25:29;22.42;;;4.53;;
19814;SDS011;10067;53.092;8.800;2023-05-17T05:27:57;16.65;;;3.50;;
19814;SDS011;10067;53.092;8.800;2023-05-17T05:30:23;20.73;;;3.53;;
19814;SDS011;10067;53.092;8.800;2023-05-17T05:32:50;22.52;;;4.45;;
19814;SDS011;10067;53.092;8.800;2023-05-17T05:35:17;16.77;;;3.58;;
19814;SDS011;10067;53.092;8.800;2023-05-17T05:37:43;19.40;;;4.72;;
19814;SDS011;10067;53.092;8.800;2023-05-17T05:40:10;17.30;;;4.70;;
19814;SDS011;10067;53.092;8.800;2023-05-17T05:42:37;13.13;;;3.78;;
19814;SDS011;10067;53.092;8.800;2023-05-17T05:45:05;17.95;;;3.67;;
19814;SDS011;10067;53.092;8.800;2023-05-17T05:47:32;17.30;;;3.75;;
19814;SDS011;10067;53.092;8.800;2023-05-17T05:49:58;20.08;;;4.03;;
19814;SDS011;10067;53.092;8.800;2023-05-17T05:52:25;16.08;;;3.42;;
19814;SDS011;10067;53.092;8.800;2023-05-17T05:54:51;16.42;;;3.65;;
19814;SDS011;10067;53.092;8.800;2023-05-17T05:57:17;18.02;;;3.85;;
19814;SDS011;10067;53.092;8.800;2023-05-17T05:59:44;17.17;;;4.13;;
19814;SDS011;10067;53.092;8.800;2023-05-17T06:02:12;15.10;;;3.35;;
19814;SDS011;10067;53.092;8.800;2023-05-17T06:04:38;20.38;;;3.83;;
19814;SDS011;10067;53.092;8.800;2023-05-17T06:07:05;17.45;;;4.07;;
19814;SDS011;10067;53.092;8.800;2023-05-17T06:09:31;15.82;;;3.85;;
19814;SDS011;10067;53.092;8.800;2023-05-17T06:11:57;15.27;;;2.85;;
19814;SDS011;10067;53.092;8.800;2023-05-17T06:14:28;17.08;;;3.28;;
19814;SDS011;10067;53.092;8.800;2023-05-17T06:16:54;23.00;;;4.22;;
19814;SDS011;10067;53.092;8.800;2023-05-17T06:19:22;19.17;;;4.22;;
19814;SDS011;10067;53.092;8.800;2023-05-17T06:21:51;17.00;;;3.47;;
19814;SDS011;10067;53.092;8.800;2023-05-17T06:24:18;15.40;;;4.28;;
19814;SDS011;10067;53.092;8.800;2023-05-17T06:26:44;15.38;;;3.55;;
19814;SDS011;10067;53.092;8.800;2023-05-17T06:29:11;18.17;;;5.10;;
19814;SDS011;10067;53.092;8.800;2023-05-17T06:31:37;23.95;;;7.10;;
19814;SDS011;10067;53.092;8.800;2023-05-17T06:34:04;17.83;;;5.38;;
19814;SDS011;10067;53.092;8.800;2023-05-17T06:36:33;20.77;;;4.68;;
19814;SDS011;10067;53.092;8.800;2023-05-17T06:39:00;14.57;;;2.85;;
19814;SDS011;10067;53.092;8.800;2023-05-17T06:41:26;13.10;;;2.88;;
19814;SDS011;10067;53.092;8.800;2023-05-17T06:43:52;15.63;;;2.92;;
19814;SDS011;10067;53.092;8.800;2023-05-17T06:46:19;10.32;;;2.20;;
19814;SDS011;10067;53.092;8.800;2023-05-17T06:48:45;16.58;;;3.08;;
19814;SDS011;10067;53.092;8.800;2023-05-17T06:51:11;16.85;;;3.35;;
19814;SDS011;10067;53.092;8.800;2023-05-17T06:53:39;14.90;;;3.28;;
19814;SDS011;10067;53.092;8.800;2023-05-17T06:56:06;10.80;;;2.80;;
19814;SDS011;10067;53.092;8.800;2023-05-17T06:58:32;18.50;;;3.42;;
19814;SDS011;10067;53.092;8.800;2023-05-17T07:00:59;18.30;;;3.22;;
19814;SDS011;10067;53.092;8.800;2023-05-17T07:03:26;19.88;;;3.25;;
19814;SDS011;10067;53.092;8.800;2023-05-17T07:05:52;16.10;;;3.53;;
19814;SDS011;10067;53.092;8.800;2023-05-17T07:08:19;20.73;;;3.13;;
19814;SDS011;10067;53.092;8.800;2023-05-17T07:10:46;12.02;;;2.90;;
19814;SDS011;10067;53.092;8.800;2023-05-17T07:13:15;15.68;;;3.65;;
19814;SDS011;10067;53.092;8.800;2023-05-17T07:15:42;22.23;;;4.47;;
19814;SDS011;10067;53.092;8.800;2023-05-17T07:18:08;14.80;;;3.20;;
19814;SDS011;10067;53.092;8.800;2023-05-17T07:20:34;14.23;;;3.55;;
19814;SDS011;10067;53.092;8.800;2023-05-17T07:23:01;19.58;;;3.38;;
19814;SDS011;10067;53.092;8.800;2023-05-17T07:25:27;20.27;;;4.10;;
19814;SDS011;10067;53.092;8.800;2023-05-17T07:27:55;17.95;;;3.78;;
19814;SDS011;10067;53.092;8.800;2023-05-17T07:30:22;24.63;;;4.88;;
19814;SDS011;10067;53.092;8.800;2023-05-17T07:32:48;23.58;;;3.58;;
19814;SDS011;10067;53.092;8.800;2023-05-17T07:35:15;22.88;;;3.78;;
19814;SDS011;10067;53.092;8.800;2023-05-17T07:37:42;17.80;;;3.63;;
19814;SDS011;10067;53.092;8.800;2023-05-17T07:40:08;23.17;;;4.25;;
19814;SDS011;10067;53.092;8.800;2023-05-17T07:42:35;15.57;;;3.38;;
19814;SDS011;10067;53.092;8.800;2023-05-17T07:45:03;20.98;;;3.58;;
19814;SDS011;10067;53.092;8.800;2023-05-17T07:47:30;16.95;;;3.33;;
19814;SDS011;10067;53.092;8.800;2023-05-17T07:49:56;20.40;;;3.33;;
19814;SDS011;10067;53.092;8.800;2023-05-17T07:52:22;19.15;;;3.53;;
19814;SDS011;10067;53.092;8.800;2023-05-17T07:54:49;15.35;;;3.25;;
19814;SDS011;10067;53.092;8.800;2023-05-17T07:57:15;21.42;;;4.03;;
19814;SDS011;10067;53.092;8.800;2023-05-17T07:59:42;16.38;;;3.15;;
19814;SDS011;10067;53.092;8.800;2023-05-17T08:02:10;12.80;;;3.00;;
19814;SDS011;10067;53.092;8.800;2023-05-17T08:04:36;13.60;;;2.97;;
19814;SDS011;10067;53.092;8.800;2023-05-17T08:07:03;13.38;;;2.65;;
19814;SDS011;10067;53.092;8.800;2023-05-17T08:09:30;12.45;;;2.65;;
19814;SDS011;10067;53.092;8.800;2023-05-17T08:11:56;14.98;;;2.72;;
19814;SDS011;10067;53.092;8.800;2023-05-17T08:14:22;10.02;;;2.40;;
19814;SDS011;10067;53.092;8.800;2023-05-17T08:16:50;11.63;;;2.58;;
19814;SDS011;10067;53.092;8.800;2023-05-17T08:19:18;10.85;;;2.50;;
19814;SDS011;10067;53.092;8.800;2023-05-17T08:21:45;7.20;;;1.98;;
19814;SDS011;10067;53.092;8.800;2023-05-17T08:24:11;13.52;;;2.85;;
19814;SDS011;10067;53.092;8.800;2023-05-17T08:26:38;10.85;;;2.40;;
19814;SDS011;10067;53.092;8.800;2023-05-17T08:29:04;13.38;;;2.28;;
19814;SDS011;10067;53.092;8.800;2023-05-17T08:31:30;11.02;;;2.60;;
19814;SDS011;10067;53.092;8.800;2023-05-17T08:33:57;9.13;;;2.88;;
19814;SDS011;10067;53.092;8.800;2023-05-17T08:36:25;10.25;;;2.30;;
19814;SDS011;10067;53.092;8.800;2023-05-17T08:38:52;8.02;;;2.47;;
19814;SDS011;10067;53.092;8.800;2023-05-17T08:41:18;12.15;;;3.08;;
19814;SDS011;10067;53.092;8.800;2023-05-17T08:43:45;9.93;;;2.88;;
19814;SDS011;10067;53.092;8.800;2023-05-17T08:46:12;12.07;;;2.90;;
19814;SDS011;10067;53.092;8.800;2023-05-17T08:48:39;9.32;;;3.33;;
19814;SDS011;10067;53.092;8.800;2023-05-17T08:51:07;9.18;;;2.65;;
19814;SDS011;10067;53.092;8.800;2023-05-17T08:53:36;9.07;;;2.30;;
19814;SDS011;10067;53.092;8.800;2023-05-17T08:56:03;12.35;;;2.17;;
19814;SDS011;10067;53.092;8.800;2023-05-17T08:58:32;13.40;;;2.50;;
19814;SDS011;10067;53.092;8.800;2023-05-17T09:01:14;9.02;;;2.10;;
19814;SDS011;10067;53.092;8.800;2023-05-17T09:03:43;14.68;;;3.95;;
19814;SDS011;10067;53.092;8.800;2023-05-17T09:06:14;6.72;;;2.35;;
19814;SDS011;10067;53.092;8.800;2023-05-17T09:08:42;10.80;;;2.70;;
19814;SDS011;10067;53.092;8.800;2023-05-17T09:11:09;9.20;;;2.88;;
19814;SDS011;10067;53.092;8.800;2023-05-17T09:13:36;10.23;;;3.08;;
19814;SDS011;10067;53.092;8.800;2023-05-17T09:16:02;5.65;;;1.90;;
19814;SDS011;10067;53.092;8.800;2023-05-17T09:18:37;12.32;;;2.95;;
19814;SDS011;10067;53.092;8.800;2023-05-17T09:21:03;10.02;;;2.95;;
19814;SDS011;10067;53.092;8.800;2023-05-17T09:23:30;12.18;;;2.70;;
19814;SDS011;10067;53.092;8.800;2023-05-17T09:26:03;10.70;;;2.28;;
19814;SDS011;10067;53.092;8.800;2023-05-17T09:28:35;8.43;;;2.05;;
19814;SDS011;10067;53.092;8.800;2023-05-17T09:31:04;11.07;;;2.33;;
19814;SDS011;10067;53.092;8.800;2023-05-17T09:33:30;10.38;;;2.90;;
19814;SDS011;10067;53.092;8.800;2023-05-17T09:35:56;12.60;;;2.83;;
19814;SDS011;10067;53.092;8.800;2023-05-17T09:38:24;12.05;;;2.30;;
19814;SDS011;10067;53.092;8.800;2023-05-17T09:40:51;8.07;;;2.10;;
19814;SDS011;10067;53.092;8.800;2023-05-17T09:43:23;9.77;;;2.55;;
19814;SDS011;10067;53.092;8.800;2023-05-17T09:45:54;9.15;;;2.55;;
19814;SDS011;10067;53.092;8.800;2023-05-17T09:48:20;11.48;;;2.35;;
19814;SDS011;10067;53.092;8.800;2023-05-17T09:50:47;11.48;;;2.40;;
19814;SDS011;10067;53.092;8.800;2023-05-17T09:53:21;11.98;;;2.78;;
19814;SDS011;10067;53.092;8.800;2023-05-17T09:55:48;7.43;;;2.15;;
19814;SDS011;10067;53.092;8.800;2023-05-17T09:58:14;12.98;;;3.08;;
19814;SDS011;10067;53.092;8.800;2023-05-17T10:00:43;11.70;;;3.28;;
19814;SDS011;10067;53.092;8.800;2023-05-17T10:03:10;13.18;;;3.42;;
19814;SDS011;10067;53.092;8.800;2023-05-17T10:05:37;11.93;;;2.38;;
19814;SDS011;10067;53.092;8.800;2023-05-17T10:08:05;7.65;;;2.58;;
19814;SDS011;10067;53.092;8.800;2023-05-17T10:10:32;11.55;;;2.72;;
19814;SDS011;10067;53.092;8.800;2023-05-17T10:12:58;12.40;;;2.42;;
19814;SDS011;10067;53.092;8.800;2023-05-17T10:15:26;11.50;;;3.72;;
19814;SDS011;10067;53.092;8.800;2023-05-17T10:17:54;13.48;;;4.85;;
19814;SDS011;10067;53.092;8.800;2023-05-17T10:20:20;13.55;;;3.92;;
19814;SDS011;10067;53.092;8.800;2023-05-17T10:22:47;12.02;;;2.83;;
19814;SDS011;10067;53.092;8.800;2023-05-17T10:25:14;9.60;;;3.28;;
19814;SDS011;10067;53.092;8.800;2023-05-17T10:27:41;12.50;;;3.33;;
19814;SDS011;10067;53.092;8.800;2023-05-17T10:30:07;12.15;;;2.90;;
19814;SDS011;10067;53.092;8.800;2023-05-17T10:32:35;10.85;;;3.20;;
19814;SDS011;10067;53.092;8.800;2023-05-17T10:35:03;11.18;;;2.55;;
19814;SDS011;10067;53.092;8.800;2023-05-17T10:37:30;11.20;;;2.55;;
19814;SDS011;10067;53.092;8.800;2023-05-17T10:39:57;12.00;;;4.07;;
19814;SDS011;10067;53.092;8.800;2023-05-17T10:42:23;10.18;;;3.63;;
19814;SDS011;10067;53.092;8.800;2023-05-17T10:44:51;7.50;;;2.00;;
19814;SDS011;10067;53.092;8.800;2023-05-17T10:47:18;9.13;;;2.17;;
19814;SDS011;10067;53.092;8.800;2023-05-17T10:49:45;7.82;;;2.28;;
19814;SDS011;10067;53.092;8.800;2023-05-17T10:52:16;8.90;;;2.20;;
19814;SDS011;10067;53.092;8.800;2023-05-17T10:54:42;7.75;;;2.00;;
19814;SDS011;10067;53.092;8.800;2023-05-17T10:57:17;7.78;;;2.22;;
19814;SDS011;10067;53.092;8.800;2023-05-17T10:59:54;7.03;;;2.10;;
19814;SDS011;10067;53.092;8.800;2023-05-17T11:02:21;10.30;;;2.00;;
19814;SDS011;10067;53.092;8.800;2023-05-17T11:04:49;8.30;;;2.00;;
19814;SDS011;10067;53.092;8.800;2023-05-17T11:07:25;14.90;;;3.08;;
19814;SDS011;10067;53.092;8.800;2023-05-17T11:09:52;10.98;;;2.28;;
19814;SDS011;10067;53.092;8.800;2023-05-17T11:12:29;12.25;;;2.22;;
19814;SDS011;10067;53.092;8.800;2023-05-17T11:14:56;11.13;;;2.80;;
19814;SDS011;10067;53.092;8.800;2023-05-17T11:17:23;11.18;;;3.20;;
19814;SDS011;10067;53.092;8.800;2023-05-17T11:20:03;9.75;;;2.72;;
19814;SDS011;10067;53.092;8.800;2023-05-17T11:22:36;11.30;;;2.83;;
19814;SDS011;10067;53.092;8.800;2023-05-17T11:25:06;15.60;;;3.10;;
19814;SDS011;10067;53.092;8.800;2023-05-17T11:27:37;13.55;;;2.92;;
19814;SDS011;10067;53.092;8.800;2023-05-17T11:30:07;13.07;;;2.70;;
19814;SDS011;10067;53.092;8.800;2023-05-17T11:32:34;10.48;;;2.72;;
19814;SDS011;10067;53.092;8.800;2023-05-17T11:35:01;10.90;;;2.58;;
19814;SDS011;10067;53.092;8.800;2023-05-17T11:37:27;9.55;;;2.67;;
19814;SDS011;10067;53.092;8.800;2023-05-17T11:40:01;15.07;;;2.58;;
19814;SDS011;10067;53.092;8.800;2023-05-17T11:42:28;8.15;;;2.17;;
19814;SDS011;10067;53.092;8.800;2023-05-17T11:44:55;11.95;;;2.90;;
19814;SDS011;10067;53.092;8.800;2023-05-17T11:47:22;8.05;;;2.85;;
19814;SDS011;10067;53.092;8.800;2023-05-17T11:49:48;7.47;;;2.30;;
19814;SDS011;10067;53.092;8.800;2023-05-17T11:52:16;11.05;;;2.63;;
19814;SDS011;10067;53.092;8.800;2023-05-17T11:54:43;8.00;;;2.33;;
19814;SDS011;10067;53.092;8.800;2023-05-17T11:57:11;7.80;;;2.63;;
19814;SDS011;10067;53.092;8.800;2023-05-17T11:59:39;12.30;;;2.10;;
19814;SDS011;10067;53.092;8.800;2023-05-17T12:02:07;8.68;;;2.40;;
19814;SDS011;10067;53.092;8.800;2023-05-17T12:04:34;8.57;;;2.75;;
19814;SDS011;10067;53.092;8.800;2023-05-17T12:07:01;8.90;;;2.58;;
19814;SDS011;10067;53.092;8.800;2023-05-17T12:09:28;9.20;;;1.90;;
19814;SDS011;10067;53.092;8.800;2023-05-17T12:11:54;12.45;;;2.85;;
19814;SDS011;10067;53.092;8.800;2023-05-17T12:14:22;8.48;;;2.72;;
19814;SDS011;10067;53.092;8.800;2023-05-17T12:16:49;9.98;;;2.08;;
19814;SDS011;10067;53.092;8.800;2023-05-17T12:19:16;11.13;;;2.55;;
19814;SDS011;10067;53.092;8.800;2023-05-17T12:21:43;6.47;;;2.05;;
19814;SDS011;10067;53.092;8.800;2023-05-17T12:24:10;8.98;;;2.85;;
19814;SDS011;10067;53.092;8.800;2023-05-17T12:26:41;14.90;;;2.95;;
19814;SDS011;10067;53.092;8.800;2023-05-17T12:29:07;9.20;;;2.05;;
19814;SDS011;10067;53.092;8.800;2023-05-17T12:31:37;10.30;;;2.58;;
19814;SDS011;10067;53.092;8.800;2023-05-17T12:34:04;10.65;;;2.60;;
19814;SDS011;10067;53.092;8.800;2023-05-17T12:36:31;11.98;;;3.33;;
19814;SDS011;10067;53.092;8.800;2023-05-17T12:38:59;10.02;;;3.05;;
19814;SDS011;10067;53.092;8.800;2023-05-17T12:41:26;12.23;;;2.70;;
19814;SDS011;10067;53.092;8.800;2023-05-17T12:43:52;11.35;;;2.50;;
19814;SDS011;10067;53.092;8.800;2023-05-17T12:46:20;11.75;;;2.45;;
19814;SDS011;10067;53.092;8.800;2023-05-17T12:48:49;16.20;;;3.05;;
19814;SDS011;10067;53.092;8.800;2023-05-17T12:51:16;10.00;;;2.53;;
19814;SDS011;10067;53.092;8.800;2023-05-17T12:53:43;9.65;;;2.55;;
19814;SDS011;10067;53.092;8.800;2023-05-17T12:56:13;18.75;;;2.92;;
19814;SDS011;10067;53.092;8.800;2023-05-17T12:58:40;15.45;;;3.20;;
19814;SDS011;10067;53.092;8.800;2023-05-17T13:01:06;12.43;;;2.85;;
19814;SDS011;10067;53.092;8.800;2023-05-17T13:03:37;15.25;;;2.60;;
19814;SDS011;10067;53.092;8.800;2023-05-17T13:06:06;18.88;;;2.95;;
19814;SDS011;10067;53.092;8.800;2023-05-17T13:08:34;16.15;;;3.13;;
19814;SDS011;10067;53.092;8.800;2023-05-17T13:11:04;16.77;;;3.17;;
19814;SDS011;10067;53.092;8.800;2023-05-17T13:13:31;11.40;;;2.60;;
19814;SDS011;10067;53.092;8.800;2023-05-17T13:15:58;8.82;;;2.42;;
19814;SDS011;10067;53.092;8.800;2023-05-17T13:18:24;12.88;;;2.72;;
19814;SDS011;10067;53.092;8.800;2023-05-17T13:20:50;13.02;;;2.70;;
19814;SDS011;10067;53.092;8.800;2023-05-17T13:23:18;15.73;;;3.28;;
19814;SDS011;10067;53.092;8.800;2023-05-17T13:25:44;13.70;;;3.40;;
19814;SDS011;10067;53.092;8.800;2023-05-17T13:28:11;12.75;;;3.20;;
19814;SDS011;10067;53.092;8.800;2023-05-17T13:30:37;10.35;;;3.10;;
19814;SDS011;10067;53.092;8.800;2023-05-17T13:33:03;14.50;;;2.50;;
19814;SDS011;10067;53.092;8.800;2023-05-17T13:35:30;11.35;;;3.13;;
19814;SDS011;10067;53.092;8.800;2023-05-17T13:37:56;10.75;;;2.72;;
19814;SDS011;10067;53.092;8.800;2023-05-17T13:40:24;14.30;;;2.47;;
19814;SDS011;10067;53.092;8.800;2023-05-17T13:42:50;13.05;;;3.08;;
19814;SDS011;10067;53.092;8.800;2023-05-17T13:45:17;15.77;;;2.88;;
19814;SDS011;10067;53.092;8.800;2023-05-17T13:47:43;11.52;;;2.88;;
19814;SDS011;10067;53.092;8.800;2023-05-17T13:50:10;15.70;;;2.70;;
19814;SDS011;10067;53.092;8.800;2023-05-17T13:52:36;10.35;;;2.50;;
19814;SDS011;10067;53.092;8.800;2023-05-17T13:55:03;7.65;;;2.53;;
19814;SDS011;10067;53.092;8.800;2023-05-17T13:57:30;10.63;;;2.30;;
19814;SDS011;10067;53.092;8.800;2023-05-17T13:59:57;8.32;;;1.90;;
19814;SDS011;10067;53.092;8.800;2023-05-17T14:02:23;10.43;;;2.55;;
19814;SDS011;10067;53.092;8.800;2023-05-17T14:04:50;6.28;;;2.13;;
19814;SDS011;10067;53.092;8.800;2023-05-17T14:07:16;6.78;;;2.15;;
19814;SDS011;10067;53.092;8.800;2023-05-17T14:09:42;8.48;;;2.45;;
19814;SDS011;10067;53.092;8.800;2023-05-17T14:12:09;6.80;;;2.03;;
19814;SDS011;10067;53.092;8.800;2023-05-17T14:14:36;11.10;;;2.13;;
19814;SDS011;10067;53.092;8.800;2023-05-17T14:17:03;10.13;;;2.83;;
19814;SDS011;10067;53.092;8.800;2023-05-17T14:19:29;9.52;;;2.63;;
19814;SDS011;10067;53.092;8.800;2023-05-17T14:21:56;9.38;;;2.92;;
19814;SDS011;10067;53.092;8.800;2023-05-17T14:24:22;11.05;;;2.47;;
19814;SDS011;10067;53.092;8.800;2023-05-17T14:26:49;11.15;;;2.53;;
19814;SDS011;10067;53.092;8.800;2023-05-17T14:29:15;8.10;;;2.30;;
19814;SDS011;10067;53.092;8.800;2023-05-17T14:31:43;10.55;;;2.72;;
19814;SDS011;10067;53.092;8.800;2023-05-17T14:34:09;7.75;;;2.53;;
19814;SDS011;10067;53.092;8.800;2023-05-17T14:36:36;8.65;;;2.50;;